Terminal Aerodrome Forecast
Issued by NWS Grand Forks, ND

Home | Current Version | Previous Version | Text Only | Print | Product List | Glossary Off
Versions: 1 2 3 4 5 6 7 8 9 10 11 12 13 14 15

000
FTUS43 KFGF 211734
TAFFAR
TAF
KFAR 211734Z 2118/2218 17015G25KT P6SM FEW150
     FM212100 20014G22KT P6SM VCTS BKN060CB
     FM220000 23011KT P6SM VCTS BKN080CB
     FM220200 25008KT P6SM SCT200=

USA.gov is the U.S. government's official web portal to all federal, state and local government web resources and services.